Strona główna
METAR-TAF:

METAR-TAF

Lotnisko :

Port lotniczy Bournemouth

Bournemouth, Anglia

Szerokość geograficzna: 50-47N, Długość geograficzna: 001-50W, wysokość: 11 m

Aktualna obserwacja pogody

Raport powstał 29 minut temu, godzina 08:20 UTC
Wiatr 7 kt od zachodnio-południowy zachód
Temperatura 4°C
Wilgotność 87%
Ciśnienie 1001 hPa
Widzialność 10 km lub więcej
Mało chmury na wysokości 3000 ft

METAR: EGHH 120820Z 24007KT 9999 FEW030 04/02 Q1001

czas: 08:49 (08:49 UTC)

Prognoza

Raport powstał 48 minut temu, godzina 08:01 UTC
Prognoza ważna od 12 godzina 09 UTC do 12 godzina 18 UTC
Wiatr 12 kt od zachód
Widzialność 10 km lub więcej
Rozproszone chmury na wysokości 2200 ft
Przejściowo
od 12 godzina 09 UTC do 12 godzina 18 UTC
Wiatr 18 kt od zachód w porywach dochodzący do 30 kt
Widzialność: 7000 m
przelotny opad deszczu

TAF: EGHH 120801Z 1209/1218 26012KT 9999 SCT022 TEMPO 1209/1218 28018G30KT 7000 SHRA

Obserwacja i prognoza pogody dla ponad 4000 lotnisk (raport METAR i TAF).

Dostępne stacje oznaczono żółtymi i czerwonymi punktami na mapie.

Najedź kursorem aby zobaczyć nazwę stacji.

Kliknij aby zobaczyć obserwacje i prognozy pogody.

Aby zmienić mapę: kliknij na zielony przycisk z czarnym krzyżykiem, aby powiększyć; na zielony przycisk z myślnikiem, aby pomniejszyć; na zielone strzałki, aby przejść do map sąsiednich.


METAR-TAF: